Time;durP1;ratioP1;P1;durP2;ratioP2;P2;SDS_P1;SDS_P2;PMS_P1;PMS_P2;Temp;Humidity;BMP_temperature;BMP_pressure;BME280_temperature;BME280_humidity;BME280_pressure;Samples;Min_cycle;Max_cycle;Signal;HPM_P1;HPM_P2
2022/11/07 00:01:18;;;;;;;3.40;2.38;;;;;;;;;;5074741;28;20209;-85
2022/11/07 00:03:46;;;;;;;2.10;1.90;;;;;;;;;;5075822;28;20283;-85
2022/11/07 00:06:28;;;;;;;2.05;1.67;;;;;;;;;;5075323;28;20247;-84
2022/11/07 00:15:28;;;;;;;2.28;2.08;;;;;;;;;;5074410;28;20205;-85
2022/11/07 00:17:58;;;;;;;3.25;2.65;;;;;;;;;;5075663;28;20233;-84
2022/11/07 00:20:26;;;;;;;3.30;2.95;;;;;;;;;;5075812;28;20232;-84
2022/11/07 00:22:55;;;;;;;2.58;2.38;;;;;;;;;;5075133;28;20261;-85
2022/11/07 00:28:04;;;;;;;2.47;2.28;;;;;;;;;;5039712;28;20217;-85
2022/11/07 00:30:32;;;;;;;2.42;2.22;;;;;;;;;;5074846;28;20237;-86
2022/11/07 00:33:01;;;;;;;2.28;2.05;;;;;;;;;;5074967;28;20307;-86
2022/11/07 00:35:29;;;;;;;3.03;2.47;;;;;;;;;;5074942;28;20263;-85
2022/11/07 00:37:57;;;;;;;3.60;2.25;;;;;;;;;;5076059;28;20220;-86
2022/11/07 00:40:24;;;;;;;2.22;2.03;;;;;;;;;;5074919;28;20199;-85
2022/11/07 00:42:52;;;;;;;2.25;2.08;;;;;;;;;;5074842;28;20649;-86
2022/11/07 00:45:19;;;;;;;2.53;2.33;;;;;;;;;;5074017;28;20201;-85
2022/11/07 00:47:47;;;;;;;2.38;2.00;;;;;;;;;;5073207;28;20422;-84
2022/11/07 00:50:16;;;;;;;2.05;1.85;;;;;;;;;;5073823;28;20282;-85
2022/11/07 00:52:43;;;;;;;2.00;1.90;;;;;;;;;;5072599;28;20587;-85
2022/11/07 00:55:11;;;;;;;1.80;1.70;;;;;;;;;;5073601;28;20197;-85
2022/11/07 00:57:38;;;;;;;2.17;1.95;;;;;;;;;;5073131;28;20324;-85
2022/11/07 01:00:08;;;;;;;1.63;1.52;;;;;;;;;;5072066;28;20668;-85
2022/11/07 01:02:37;;;;;;;1.80;1.70;;;;;;;;;;5072439;28;20246;-85
2022/11/07 01:05:10;;;;;;;2.25;2.05;;;;;;;;;;5072407;28;20196;-85
2022/11/07 01:07:40;;;;;;;2.17;1.90;;;;;;;;;;5073864;28;20380;-85
2022/11/07 01:10:11;;;;;;;2.30;2.10;;;;;;;;;;5072543;28;20319;-85
2022/11/07 01:12:39;;;;;;;2.17;1.98;;;;;;;;;;5073320;28;20720;-85
2022/11/07 01:15:07;;;;;;;2.25;1.90;;;;;;;;;;5072546;28;20201;-85
2022/11/07 01:17:35;;;;;;;2.05;1.95;;;;;;;;;;5072616;28;20312;-85
2022/11/07 01:20:02;;;;;;;2.67;1.75;;;;;;;;;;5078563;28;20287;-85
2022/11/07 01:22:30;;;;;;;1.92;1.83;;;;;;;;;;5079612;28;20243;-85
2022/11/07 01:24:59;;;;;;;2.30;1.65;;;;;;;;;;5077710;28;20292;-85
2022/11/07 01:27:26;;;;;;;2.13;1.92;;;;;;;;;;5078884;28;20308;-85
2022/11/07 01:29:54;;;;;;;2.15;2.03;;;;;;;;;;5077955;28;20235;-85
2022/11/07 01:32:31;;;;;;;1.83;1.73;;;;;;;;;;5077800;28;20221;-85
2022/11/07 01:34:59;;;;;;;2.10;1.92;;;;;;;;;;5078452;28;20259;-86
2022/11/07 01:37:26;;;;;;;3.17;1.85;;;;;;;;;;5077190;28;20306;-85
2022/11/07 01:42:31;;;;;;;2.22;1.80;;;;;;;;;;5059484;28;20216;-79
2022/11/07 01:45:00;;;;;;;2.20;1.95;;;;;;;;;;5068544;28;20280;-79
2022/11/07 01:47:31;;;;;;;2.08;1.92;;;;;;;;;;5077062;28;20673;-79
2022/11/07 01:50:00;;;;;;;1.95;1.65;;;;;;;;;;5076699;28;20279;-79
2022/11/07 01:52:31;;;;;;;2.03;1.92;;;;;;;;;;5076300;28;20220;-79
2022/11/07 01:55:04;;;;;;;1.80;1.13;;;;;;;;;;5076106;28;20741;-77
2022/11/07 01:57:35;;;;;;;3.38;1.70;;;;;;;;;;5076819;28;20201;-78
2022/11/07 02:00:10;;;;;;;5.95;1.80;;;;;;;;;;5076481;28;20201;-79
2022/11/07 02:02:37;;;;;;;1.92;1.75;;;;;;;;;;5076230;28;20249;-79
2022/11/07 02:05:07;;;;;;;2.08;1.83;;;;;;;;;;5076061;28;20201;-79
2022/11/07 02:07:34;;;;;;;2.13;1.88;;;;;;;;;;5076639;28;20591;-79
2022/11/07 02:10:03;;;;;;;1.90;1.80;;;;;;;;;;5076096;28;20288;-78
2022/11/07 02:12:32;;;;;;;1.90;1.77;;;;;;;;;;5064993;28;20225;-79
2022/11/07 02:14:59;;;;;;;1.77;1.67;;;;;;;;;;5055460;28;20765;-79
2022/11/07 02:17:27;;;;;;;1.90;1.77;;;;;;;;;;5055164;28;20336;-79
2022/11/07 02:19:56;;;;;;;1.65;1.55;;;;;;;;;;5073186;28;20233;-78
2022/11/07 02:22:33;;;;;;;1.50;1.40;;;;;;;;;;5065991;28;20281;-78
2022/11/07 02:25:05;;;;;;;3.10;1.55;;;;;;;;;;5056939;28;20748;-78
2022/11/07 02:27:34;;;;;;;1.60;1.50;;;;;;;;;;5056620;28;20205;-79
2022/11/07 02:30:06;;;;;;;1.50;1.40;;;;;;;;;;5054774;28;20202;-79
2022/11/07 02:32:34;;;;;;;1.70;1.60;;;;;;;;;;5056372;28;20693;-79
2022/11/07 02:35:05;;;;;;;2.05;1.60;;;;;;;;;;5056315;28;20620;-79
2022/11/07 02:37:36;;;;;;;2.03;1.45;;;;;;;;;;5055784;28;20288;-79
2022/11/07 02:40:08;;;;;;;2.10;1.80;;;;;;;;;;5054916;28;20344;-79
2022/11/07 02:42:43;;;;;;;1.60;1.50;;;;;;;;;;5055282;28;20205;-79
2022/11/07 02:45:13;;;;;;;2.65;1.65;;;;;;;;;;5055164;28;20208;-78
2022/11/07 02:47:40;;;;;;;2.38;1.73;;;;;;;;;;5054912;28;20206;-78
2022/11/07 02:50:10;;;;;;;1.77;1.67;;;;;;;;;;5054686;28;20292;-77
2022/11/07 02:52:38;;;;;;;3.75;1.88;;;;;;;;;;5055256;28;20627;-77
2022/11/07 02:55:08;;;;;;;1.83;1.73;;;;;;;;;;5055219;28;20204;-78
2022/11/07 02:57:36;;;;;;;2.00;1.85;;;;;;;;;;5055678;28;20217;-77
2022/11/07 03:00:05;;;;;;;2.40;1.90;;;;;;;;;;5054902;28;20673;-79
2022/11/07 03:02:32;;;;;;;1.88;1.77;;;;;;;;;;5055270;28;20206;-78
2022/11/07 03:05:00;;;;;;;1.70;1.60;;;;;;;;;;5054810;28;20206;-77
2022/11/07 03:07:27;;;;;;;1.70;1.60;;;;;;;;;;5054857;28;20212;-78
2022/11/07 03:09:55;;;;;;;1.65;1.55;;;;;;;;;;5057432;28;20724;-78
2022/11/07 03:12:23;;;;;;;1.63;1.52;;;;;;;;;;5055793;28;20297;-77
2022/11/07 03:14:51;;;;;;;1.80;1.70;;;;;;;;;;5035097;28;20206;-79
2022/11/07 03:17:18;;;;;;;2.08;1.98;;;;;;;;;;5034636;28;20206;-78
2022/11/07 03:19:46;;;;;;;2.83;1.83;;;;;;;;;;5034520;28;20670;-78
2022/11/07 03:22:13;;;;;;;2.08;1.88;;;;;;;;;;5034205;28;20233;-79
2022/11/07 03:24:41;;;;;;;2.38;1.88;;;;;;;;;;5034329;28;20198;-77
2022/11/07 03:27:08;;;;;;;1.75;1.65;;;;;;;;;;5034489;28;20202;-79
2022/11/07 03:29:37;;;;;;;2.92;1.80;;;;;;;;;;5033908;28;20208;-78
2022/11/07 03:32:05;;;;;;;3.15;2.25;;;;;;;;;;5033955;28;20229;-78
2022/11/07 03:34:32;;;;;;;2.03;1.92;;;;;;;;;;5034318;28;20226;-79
2022/11/07 03:37:00;;;;;;;2.35;2.15;;;;;;;;;;5034675;28;20210;-77
2022/11/07 03:39:27;;;;;;;2.15;1.95;;;;;;;;;;5033292;28;20206;-77
2022/11/07 03:41:54;;;;;;;1.70;1.60;;;;;;;;;;5039258;28;20749;-78
2022/11/07 03:44:22;;;;;;;1.70;1.60;;;;;;;;;;5053878;28;20208;-79
2022/11/07 03:46:51;;;;;;;1.50;1.40;;;;;;;;;;5053723;28;20297;-77
2022/11/07 03:49:18;;;;;;;2.58;2.13;;;;;;;;;;5053695;28;20197;-79
2022/11/07 03:51:46;;;;;;;2.00;1.58;;;;;;;;;;5053420;28;20312;-77
2022/11/07 03:54:13;;;;;;;2.05;1.90;;;;;;;;;;5053387;28;20228;-79
2022/11/07 03:56:40;;;;;;;1.98;1.77;;;;;;;;;;5054008;28;20208;-78
2022/11/07 03:59:08;;;;;;;2.30;1.77;;;;;;;;;;5054457;28;20220;-78
2022/11/07 04:01:35;;;;;;;1.85;1.73;;;;;;;;;;5053372;28;20221;-78
2022/11/07 04:04:04;;;;;;;2.95;1.90;;;;;;;;;;5053501;28;20204;-78
2022/11/07 04:06:32;;;;;;;1.92;1.83;;;;;;;;;;5053674;28;20787;-77
2022/11/07 04:09:00;;;;;;;2.25;1.80;;;;;;;;;;5053696;28;20202;-77
2022/11/07 04:19:43;;;;;;;1.70;1.60;;;;;;;;;;5053514;28;20267;-76
2022/11/07 04:22:11;;;;;;;1.58;1.48;;;;;;;;;;5052399;28;20611;-77
2022/11/07 04:24:38;;;;;;;1.33;1.30;;;;;;;;;;5053427;28;20355;-77
2022/11/07 04:29:51;;;;;;;1.60;1.27;;;;;;;;;;5053112;28;20684;-77
2022/11/07 04:32:18;;;;;;;2.95;1.60;;;;;;;;;;5053329;28;20209;-79
2022/11/07 04:34:47;;;;;;;1.45;1.35;;;;;;;;;;5053057;28;20228;-77
2022/11/07 04:37:14;;;;;;;1.30;1.20;;;;;;;;;;5053053;28;20698;-77
2022/11/07 04:39:42;;;;;;;2.38;1.70;;;;;;;;;;5053220;28;20292;-78
2022/11/07 04:42:09;;;;;;;2.35;1.50;;;;;;;;;;5052436;28;20233;-78
2022/11/07 04:44:37;;;;;;;2.55;2.20;;;;;;;;;;5052769;28;20198;-77
2022/11/07 04:47:04;;;;;;;2.17;1.95;;;;;;;;;;5052645;28;20285;-78
2022/11/07 04:49:32;;;;;;;1.90;1.70;;;;;;;;;;5052701;28;20202;-77
2022/11/07 04:52:00;;;;;;;2.03;1.92;;;;;;;;;;5052398;28;20776;-77
2022/11/07 04:54:28;;;;;;;2.15;1.88;;;;;;;;;;5051990;28;20225;-77
2022/11/07 04:56:55;;;;;;;1.80;1.70;;;;;;;;;;5052920;28;20204;-78
2022/11/07 04:59:23;;;;;;;1.70;1.60;;;;;;;;;;5052151;28;20286;-77
2022/11/07 05:01:50;;;;;;;2.05;1.80;;;;;;;;;;5052457;28;20222;-78
2022/11/07 05:04:17;;;;;;;2.00;1.77;;;;;;;;;;5052675;28;20199;-78
2022/11/07 05:06:45;;;;;;;2.83;2.63;;;;;;;;;;5052583;28;20502;-79
2022/11/07 05:09:18;;;;;;;2.33;2.13;;;;;;;;;;5051853;28;20197;-78
2022/11/07 05:11:45;;;;;;;2.95;2.40;;;;;;;;;;5052740;28;20225;-78
2022/11/07 05:14:13;;;;;;;1.92;1.83;;;;;;;;;;5052798;28;20217;-79
2022/11/07 05:16:42;;;;;;;3.10;2.35;;;;;;;;;;5052400;28;20292;-79
2022/11/07 05:19:15;;;;;;;3.42;2.80;;;;;;;;;;5052082;28;20202;-80
2022/11/07 05:21:42;;;;;;;2.10;2.00;;;;;;;;;;5052187;28;20222;-79
2022/11/07 05:24:09;;;;;;;2.75;1.98;;;;;;;;;;5052460;28;20200;-77
2022/11/07 05:26:37;;;;;;;4.40;2.83;;;;;;;;;;5052853;28;20572;-76
2022/11/07 05:29:07;;;;;;;2.47;2.28;;;;;;;;;;5052314;28;20208;-77
2022/11/07 05:31:34;;;;;;;2.45;2.22;;;;;;;;;;5052744;28;20245;-78
2022/11/07 05:34:02;;;;;;;2.05;1.70;;;;;;;;;;5053244;28;20616;-77
2022/11/07 05:36:29;;;;;;;2.38;1.85;;;;;;;;;;5063819;28;20225;-77
2022/11/07 05:38:57;;;;;;;2.15;1.95;;;;;;;;;;5058749;28;20229;-79
2022/11/07 05:41:24;;;;;;;2.17;1.98;;;;;;;;;;5053519;28;20240;-78
2022/11/07 05:43:53;;;;;;;2.45;2.00;;;;;;;;;;5052712;28;20212;-79
2022/11/07 05:46:20;;;;;;;2.20;2.00;;;;;;;;;;5052936;28;20206;-79
2022/11/07 05:48:48;;;;;;;2.38;2.17;;;;;;;;;;5052485;28;20212;-79
2022/11/07 05:51:15;;;;;;;2.45;2.25;;;;;;;;;;5052754;28;20232;-78
2022/11/07 05:53:43;;;;;;;3.65;2.38;;;;;;;;;;5052335;28;20202;-78
2022/11/07 05:56:10;;;;;;;2.85;1.85;;;;;;;;;;5052333;28;20717;-77
2022/11/07 05:58:38;;;;;;;4.53;2.00;;;;;;;;;;5052128;28;20690;-78
2022/11/07 06:01:07;;;;;;;2.40;2.20;;;;;;;;;;5050774;28;20228;-78
2022/11/07 06:03:34;;;;;;;2.30;2.10;;;;;;;;;;5051789;28;20193;-78
2022/11/07 06:06:02;;;;;;;2.30;2.08;;;;;;;;;;5053565;28;20293;-78
2022/11/07 06:08:29;;;;;;;7.07;2.88;;;;;;;;;;5054827;28;20292;-77
2022/11/07 06:10:57;;;;;;;2.92;2.63;;;;;;;;;;5055343;28;20310;-79
2022/11/07 06:13:24;;;;;;;8.13;1.95;;;;;;;;;;5061981;28;20197;-77
2022/11/07 06:15:52;;;;;;;3.15;2.85;;;;;;;;;;5056338;28;20213;-78
2022/11/07 06:18:21;;;;;;;2.08;1.88;;;;;;;;;;5055165;28;20212;-78
2022/11/07 06:20:49;;;;;;;2.83;1.90;;;;;;;;;;5055355;28;20692;-76
2022/11/07 06:23:17;;;;;;;2.22;2.03;;;;;;;;;;5060390;28;20209;-78
2022/11/07 06:25:44;;;;;;;3.85;2.30;;;;;;;;;;5067170;28;20252;-77
2022/11/07 06:28:13;;;;;;;2.45;2.10;;;;;;;;;;5067593;28;20289;-77
2022/11/07 06:30:41;;;;;;;1.80;1.70;;;;;;;;;;5059740;28;20263;-78
2022/11/07 06:33:13;;;;;;;2.75;2.08;;;;;;;;;;5055888;28;20383;-78
2022/11/07 06:35:42;;;;;;;4.28;1.90;;;;;;;;;;5055760;28;20225;-78
2022/11/07 06:38:11;;;;;;;4.85;2.00;;;;;;;;;;5055573;28;20208;-78
2022/11/07 06:40:39;;;;;;;3.13;2.63;;;;;;;;;;5056008;28;20233;-78
2022/11/07 06:43:07;;;;;;;3.10;2.13;;;;;;;;;;5055931;28;20580;-79
2022/11/07 06:45:35;;;;;;;2.55;2.35;;;;;;;;;;5055768;28;20208;-79
2022/11/07 06:48:03;;;;;;;2.80;2.10;;;;;;;;;;5055493;28;20202;-79
2022/11/07 06:50:30;;;;;;;2.10;2.00;;;;;;;;;;5055617;28;20232;-78
2022/11/07 06:53:03;;;;;;;2.97;2.35;;;;;;;;;;5055639;28;20288;-79
2022/11/07 06:55:31;;;;;;;5.43;2.80;;;;;;;;;;5055613;28;20264;-79
2022/11/07 06:57:59;;;;;;;2.20;2.00;;;;;;;;;;5055017;28;20205;-78
2022/11/07 07:00:27;;;;;;;3.28;2.97;;;;;;;;;;5054864;28;20740;-78
2022/11/07 07:02:55;;;;;;;3.03;2.83;;;;;;;;;;5054714;28;20212;-77
2022/11/07 07:05:22;;;;;;;3.17;2.30;;;;;;;;;;5054882;28;20749;-77
2022/11/07 07:07:50;;;;;;;2.25;2.05;;;;;;;;;;5055085;28;20209;-79
2022/11/07 07:10:19;;;;;;;1.80;1.70;;;;;;;;;;5054624;28;20231;-78
2022/11/07 07:12:46;;;;;;;2.88;2.65;;;;;;;;;;5041940;28;20276;-78
2022/11/07 07:15:14;;;;;;;2.55;2.33;;;;;;;;;;5034881;28;20225;-79
2022/11/07 07:17:41;;;;;;;2.97;2.55;;;;;;;;;;5033772;28;20202;-77
2022/11/07 07:20:10;;;;;;;2.80;2.30;;;;;;;;;;5033933;28;20208;-77
2022/11/07 07:22:38;;;;;;;3.45;2.10;;;;;;;;;;5034655;28;20203;-78
2022/11/07 07:25:07;;;;;;;3.13;1.55;;;;;;;;;;5033984;28;20221;-77
2022/11/07 07:27:36;;;;;;;3.38;1.90;;;;;;;;;;5034062;28;20237;-77
2022/11/07 07:30:05;;;;;;;4.25;2.10;;;;;;;;;;5033962;28;20198;-78
2022/11/07 07:32:34;;;;;;;2.10;1.90;;;;;;;;;;5034492;28;20224;-77
2022/11/07 07:35:02;;;;;;;2.40;1.75;;;;;;;;;;5033936;28;20293;-78
2022/11/07 07:37:30;;;;;;;3.53;1.55;;;;;;;;;;5034113;28;20288;-77
2022/11/07 07:39:57;;;;;;;1.67;1.48;;;;;;;;;;5033796;28;20209;-77
2022/11/07 07:42:25;;;;;;;1.75;1.48;;;;;;;;;;5043858;28;20217;-78
2022/11/07 07:44:53;;;;;;;1.77;1.55;;;;;;;;;;5053900;28;20209;-79
2022/11/07 07:47:21;;;;;;;2.03;1.83;;;;;;;;;;5053934;28;20202;-78
2022/11/07 07:49:48;;;;;;;2.38;2.17;;;;;;;;;;5052808;28;20198;-78
2022/11/07 07:52:16;;;;;;;3.10;1.92;;;;;;;;;;5053479;28;20605;-78
2022/11/07 07:54:43;;;;;;;2.10;1.90;;;;;;;;;;5053531;28;20208;-79
2022/11/07 07:57:10;;;;;;;2.42;2.08;;;;;;;;;;5053429;28;20687;-78
2022/11/07 07:59:38;;;;;;;1.77;1.67;;;;;;;;;;5053176;28;20423;-78
2022/11/07 08:02:11;;;;;;;2.20;1.98;;;;;;;;;;5053809;28;20221;-79
2022/11/07 08:04:40;;;;;;;5.38;2.42;;;;;;;;;;5053775;28;20201;-78
2022/11/07 08:07:07;;;;;;;1.92;1.75;;;;;;;;;;5053799;28;20204;-79
2022/11/07 08:09:35;;;;;;;2.13;1.98;;;;;;;;;;5053292;28;20201;-78
2022/11/07 08:12:03;;;;;;;1.60;1.50;;;;;;;;;;5053757;28;20229;-78
2022/11/07 08:14:31;;;;;;;2.72;1.70;;;;;;;;;;5053696;28;20768;-78
2022/11/07 08:16:59;;;;;;;3.05;1.50;;;;;;;;;;5053734;28;20225;-79
2022/11/07 08:19:28;;;;;;;3.25;2.15;;;;;;;;;;5053074;28;20236;-79
2022/11/07 08:21:55;;;;;;;2.17;1.90;;;;;;;;;;5052758;28;20225;-79
2022/11/07 08:24:23;;;;;;;1.52;1.42;;;;;;;;;;5052451;28;20215;-79
2022/11/07 08:26:50;;;;;;;5.45;1.67;;;;;;;;;;5053182;28;20292;-79
2022/11/07 08:29:18;;;;;;;2.28;1.40;;;;;;;;;;5052008;28;20206;-79
2022/11/07 08:31:45;;;;;;;2.17;1.70;;;;;;;;;;5053002;28;20253;-78
2022/11/07 08:34:13;;;;;;;2.65;1.80;;;;;;;;;;5052605;28;20208;-79
2022/11/07 08:36:41;;;;;;;2.15;1.40;;;;;;;;;;5052776;28;20221;-78
2022/11/07 08:39:09;;;;;;;1.40;1.25;;;;;;;;;;5052653;28;20284;-79
2022/11/07 08:41:36;;;;;;;4.53;1.70;;;;;;;;;;5052619;28;20320;-78
2022/11/07 08:44:04;;;;;;;3.05;2.28;;;;;;;;;;5052473;28;20292;-78
2022/11/07 08:46:31;;;;;;;2.08;1.50;;;;;;;;;;5052807;28;20204;-78
2022/11/07 08:48:59;;;;;;;3.17;1.98;;;;;;;;;;5052442;28;20292;-78
2022/11/07 08:51:26;;;;;;;3.30;1.73;;;;;;;;;;5054011;28;20229;-78
2022/11/07 08:53:55;;;;;;;2.92;1.73;;;;;;;;;;5063827;28;20201;-78
2022/11/07 08:56:22;;;;;;;2.60;1.58;;;;;;;;;;5059955;28;20316;-79
2022/11/07 08:58:50;;;;;;;2.47;1.52;;;;;;;;;;5053094;28;20208;-79
2022/11/07 09:01:17;;;;;;;2.67;1.60;;;;;;;;;;5052850;28;20225;-79
2022/11/07 09:03:45;;;;;;;1.70;1.40;;;;;;;;;;5052643;28;20212;-79
2022/11/07 09:06:12;;;;;;;2.70;1.58;;;;;;;;;;5053582;28;20288;-79
2022/11/07 09:08:40;;;;;;;1.38;1.25;;;;;;;;;;5052460;28;20224;-79
2022/11/07 09:11:09;;;;;;;2.58;1.50;;;;;;;;;;5054574;28;20236;-78
2022/11/07 09:13:37;;;;;;;1.20;1.10;;;;;;;;;;5052879;28;20227;-79
2022/11/07 09:16:06;;;;;;;3.50;2.15;;;;;;;;;;5052915;28;20253;-79
2022/11/07 09:18:34;;;;;;;2.72;1.50;;;;;;;;;;5052451;28;20201;-79
2022/11/07 09:21:01;;;;;;;2.08;1.83;;;;;;;;;;5052645;28;20321;-78
2022/11/07 09:23:29;;;;;;;1.40;1.30;;;;;;;;;;5052502;28;20227;-78
2022/11/07 09:25:59;;;;;;;2.13;1.33;;;;;;;;;;5052409;28;20201;-79
2022/11/07 09:28:29;;;;;;;1.90;1.30;;;;;;;;;;5052728;28;20581;-79
2022/11/07 09:30:58;;;;;;;1.65;1.30;;;;;;;;;;5052364;28;20228;-78
2022/11/07 09:33:26;;;;;;;1.40;1.30;;;;;;;;;;5052716;28;20205;-78
2022/11/07 09:35:53;;;;;;;1.40;1.30;;;;;;;;;;5052775;28;20197;-79
2022/11/07 09:38:21;;;;;;;1.98;1.33;;;;;;;;;;5052206;28;20697;-78
2022/11/07 09:40:53;;;;;;;1.95;1.42;;;;;;;;;;5055189;28;20229;-78
2022/11/07 09:43:47;;;;;;;3.38;1.48;;;;;;;;;;5056328;28;20669;-78
2022/11/07 09:46:28;;;;;;;1.27;1.17;;;;;;;;;;5056646;28;20271;-78
2022/11/07 09:49:01;;;;;;;1.80;1.30;;;;;;;;;;5055845;28;20197;-79
2022/11/07 09:51:35;;;;;;;1.33;1.17;;;;;;;;;;5056122;28;20312;-79
2022/11/07 09:54:07;;;;;;;3.45;1.67;;;;;;;;;;5056377;28;20308;-79
2022/11/07 09:56:35;;;;;;;3.25;1.40;;;;;;;;;;5056398;28;20222;-78
2022/11/07 09:59:07;;;;;;;3.92;2.05;;;;;;;;;;5055686;28;20272;-78
2022/11/07 10:01:35;;;;;;;3.53;1.63;;;;;;;;;;5055807;28;20308;-78
2022/11/07 10:04:02;;;;;;;2.83;1.58;;;;;;;;;;5055318;28;20289;-78
2022/11/07 10:06:33;;;;;;;2.00;1.60;;;;;;;;;;5055824;28;20202;-78
2022/11/07 10:09:11;;;;;;;1.40;1.23;;;;;;;;;;5055624;28;20301;-78
2022/11/07 10:11:43;;;;;;;1.25;1.15;;;;;;;;;;5055460;28;20863;-79
2022/11/07 10:14:21;;;;;;;2.88;1.70;;;;;;;;;;5055568;28;20288;-78
2022/11/07 10:17:08;;;;;;;0.90;0.90;;;;;;;;;;5055103;28;20633;-78
2022/11/07 10:19:49;;;;;;;1.38;1.27;;;;;;;;;;5055311;28;20205;-78
2022/11/07 10:22:50;;;;;;;1.30;1.25;;;;;;;;;;5055116;28;20232;-78
2022/11/07 10:25:25;;;;;;;2.15;1.80;;;;;;;;;;5054702;28;20253;-79
2022/11/07 10:28:01;;;;;;;2.22;1.40;;;;;;;;;;5054824;28;20201;-78
2022/11/07 10:30:30;;;;;;;3.17;1.70;;;;;;;;;;5055329;28;20328;-79
2022/11/07 10:33:05;;;;;;;2.03;1.60;;;;;;;;;;5054778;28;20581;-78
2022/11/07 10:35:34;;;;;;;1.20;1.10;;;;;;;;;;5054192;28;20292;-78
2022/11/07 10:38:14;;;;;;;1.20;1.10;;;;;;;;;;5055532;28;20315;-78
2022/11/07 10:40:42;;;;;;;1.85;1.35;;;;;;;;;;5054892;28;20225;-78
2022/11/07 10:43:14;;;;;;;1.20;1.10;;;;;;;;;;5038704;28;20228;-78
2022/11/07 10:45:43;;;;;;;1.52;1.17;;;;;;;;;;5034765;28;20255;-78
2022/11/07 10:48:14;;;;;;;1.92;1.30;;;;;;;;;;5035227;28;20203;-78
2022/11/07 10:50:50;;;;;;;0.93;0.93;;;;;;;;;;5034232;28;20275;-78
2022/11/07 10:53:20;;;;;;;2.15;1.75;;;;;;;;;;5034385;28;20209;-78
2022/11/07 10:55:50;;;;;;;1.38;1.27;;;;;;;;;;5034268;28;20206;-77
2022/11/07 10:58:21;;;;;;;2.17;1.30;;;;;;;;;;5034425;28;20999;-78
2022/11/07 11:01:01;;;;;;;1.63;1.10;;;;;;;;;;5034538;28;20222;-78
2022/11/07 11:03:33;;;;;;;1.95;1.08;;;;;;;;;;5034473;28;20670;-78
2022/11/07 11:06:12;;;;;;;2.65;1.48;;;;;;;;;;5033998;28;20229;-78
2022/11/07 11:08:39;;;;;;;1.55;1.27;;;;;;;;;;5034301;28;20287;-78
2022/11/07 11:11:23;;;;;;;1.77;1.30;;;;;;;;;;5034080;28;20224;-78
2022/11/07 11:14:06;;;;;;;2.08;1.63;;;;;;;;;;5034379;28;20285;-78
2022/11/07 11:16:38;;;;;;;1.30;1.08;;;;;;;;;;5033739;28;20206;-78
2022/11/07 11:19:16;;;;;;;1.42;1.33;;;;;;;;;;5033841;28;20219;-78
2022/11/07 11:21:46;;;;;;;3.67;1.85;;;;;;;;;;5033748;28;20309;-78
2022/11/07 11:24:26;;;;;;;1.23;1.10;;;;;;;;;;5033612;28;20209;-78
2022/11/07 11:26:54;;;;;;;1.80;1.20;;;;;;;;;;5033412;28;20211;-78
2022/11/07 11:29:30;;;;;;;3.05;1.13;;;;;;;;;;5036492;28;20210;-77
2022/11/07 11:31:59;;;;;;;2.03;1.20;;;;;;;;;;5049299;28;20225;-77
2022/11/07 11:34:35;;;;;;;1.48;1.02;;;;;;;;;;5051436;28;20230;-78
2022/11/07 11:37:08;;;;;;;1.00;0.95;;;;;;;;;;5048655;28;20225;-78
2022/11/07 11:39:41;;;;;;;1.55;1.00;;;;;;;;;;5034648;28;20587;-79
2022/11/07 11:42:19;;;;;;;1.73;1.20;;;;;;;;;;5046609;28;20315;-78
2022/11/07 11:44:47;;;;;;;0.90;0.90;;;;;;;;;;5054521;28;20208;-78
2022/11/07 11:47:22;;;;;;;3.65;1.58;;;;;;;;;;5054272;28;20217;-79
2022/11/07 11:50:03;;;;;;;1.67;1.08;;;;;;;;;;5052709;28;20201;-78
2022/11/07 11:52:31;;;;;;;1.65;1.00;;;;;;;;;;5053011;28;20208;-79
2022/11/07 11:55:00;;;;;;;2.00;1.10;;;;;;;;;;5053684;28;20197;-79
2022/11/07 11:57:33;;;;;;;0.88;0.88;;;;;;;;;;5054290;28;20229;-78
2022/11/07 12:00:10;;;;;;;6.05;1.30;;;;;;;;;;5053394;28;20288;-78
2022/11/07 12:03:01;;;;;;;1.75;1.10;;;;;;;;;;5053414;28;20197;-79
2022/11/07 12:05:50;;;;;;;1.15;1.10;;;;;;;;;;5053827;28;20205;-79
2022/11/07 12:08:32;;;;;;;2.42;1.10;;;;;;;;;;5055017;28;20661;-78
2022/11/07 12:11:05;;;;;;;1.00;0.90;;;;;;;;;;5062624;28;20229;-78
2022/11/07 12:13:40;;;;;;;1.58;1.10;;;;;;;;;;5072917;28;20284;-79
2022/11/07 12:16:19;;;;;;;2.35;1.08;;;;;;;;;;5074571;28;20654;-79
2022/11/07 12:18:53;;;;;;;1.35;1.10;;;;;;;;;;5073056;28;20226;-79
2022/11/07 12:21:31;;;;;;;1.88;1.10;;;;;;;;;;5073160;28;20308;-78
2022/11/07 12:24:15;;;;;;;1.30;1.20;;;;;;;;;;5073254;28;20201;-78
2022/11/07 12:26:49;;;;;;;1.35;1.10;;;;;;;;;;5073317;28;20288;-78
2022/11/07 12:29:26;;;;;;;2.67;1.05;;;;;;;;;;5072993;28;20692;-78
2022/11/07 12:32:09;;;;;;;0.93;0.93;;;;;;;;;;5073352;28;20304;-79
2022/11/07 12:34:52;;;;;;;1.92;1.10;;;;;;;;;;5073364;28;20212;-78
2022/11/07 12:37:41;;;;;;;1.73;1.17;;;;;;;;;;5073035;28;20197;-79
2022/11/07 12:40:24;;;;;;;1.80;1.02;;;;;;;;;;5072974;28;20284;-78
2022/11/07 12:43:04;;;;;;;1.42;1.00;;;;;;;;;;5054338;28;20241;-78
2022/11/07 12:45:49;;;;;;;0.98;0.90;;;;;;;;;;5053007;28;20265;-78
2022/11/07 12:48:59;;;;;;;1.45;0.90;;;;;;;;;;5052409;28;20198;-77
2022/11/07 12:51:40;;;;;;;1.48;0.60;;;;;;;;;;4971594;28;20228;-78
2022/11/07 12:54:30;;;;;;;1.63;1.27;;;;;;;;;;5040307;28;20288;-78
2022/11/07 12:56:58;;;;;;;0.95;0.95;;;;;;;;;;5052752;28;20205;-78
2022/11/07 12:59:28;;;;;;;1.77;1.00;;;;;;;;;;5051947;28;20759;-77
2022/11/07 13:02:03;;;;;;;1.88;1.58;;;;;;;;;;5052743;28;20226;-78
2022/11/07 13:04:36;;;;;;;1.58;1.10;;;;;;;;;;5052617;28;20304;-78
2022/11/07 13:07:13;;;;;;;2.00;1.23;;;;;;;;;;5052442;28;20202;-78
2022/11/07 13:09:47;;;;;;;0.88;0.80;;;;;;;;;;5052435;28;20264;-77
2022/11/07 13:12:26;;;;;;;1.25;1.15;;;;;;;;;;5052596;28;20237;-78
2022/11/07 13:14:55;;;;;;;0.95;0.70;;;;;;;;;;5053833;28;20205;-78
2022/11/07 13:17:26;;;;;;;1.02;0.88;;;;;;;;;;5056382;28;20693;-78
2022/11/07 13:20:01;;;;;;;1.33;0.90;;;;;;;;;;5056396;28;20217;-78
2022/11/07 13:22:36;;;;;;;1.42;1.00;;;;;;;;;;5056624;28;20266;-77
2022/11/07 13:25:26;;;;;;;1.40;1.25;;;;;;;;;;5056799;28;20264;-78
2022/11/07 13:28:07;;;;;;;1.23;0.95;;;;;;;;;;5056260;28;20288;-78
2022/11/07 13:30:37;;;;;;;2.63;1.10;;;;;;;;;;5056305;28;20704;-77
2022/11/07 13:33:06;;;;;;;2.22;1.08;;;;;;;;;;5056438;28;20233;-78
2022/11/07 13:35:35;;;;;;;1.45;1.10;;;;;;;;;;5056043;28;20206;-78
2022/11/07 13:38:09;;;;;;;2.05;1.35;;;;;;;;;;5056132;28;20205;-78
2022/11/07 13:40:42;;;;;;;3.00;1.90;;;;;;;;;;5055784;28;20232;-77
2022/11/07 13:43:14;;;;;;;1.13;1.02;;;;;;;;;;5056244;28;20268;-78
2022/11/07 13:45:46;;;;;;;1.98;1.08;;;;;;;;;;5056542;28;20205;-78
2022/11/07 13:48:18;;;;;;;1.92;1.73;;;;;;;;;;5056036;28;20208;-78
2022/11/07 13:50:50;;;;;;;1.52;1.25;;;;;;;;;;5055967;28;20225;-78
2022/11/07 13:53:23;;;;;;;0.85;0.80;;;;;;;;;;5056162;28;20756;-78
2022/11/07 13:55:57;;;;;;;1.15;0.80;;;;;;;;;;5056390;28;20205;-78
2022/11/07 13:58:26;;;;;;;1.08;0.95;;;;;;;;;;5055584;28;20598;-78
2022/11/07 14:00:53;;;;;;;1.08;0.98;;;;;;;;;;5055410;28;20344;-78
2022/11/07 14:03:28;;;;;;;2.05;1.27;;;;;;;;;;5055747;28;20205;-78
2022/11/07 14:05:56;;;;;;;1.45;0.95;;;;;;;;;;5055903;28;20250;-79
2022/11/07 14:08:31;;;;;;;3.40;2.35;;;;;;;;;;5055453;28;20578;-78
2022/11/07 14:10:59;;;;;;;1.40;1.30;;;;;;;;;;5054926;28;20221;-78
2022/11/07 14:13:30;;;;;;;1.27;1.15;;;;;;;;;;5055205;28;20197;-76
2022/11/07 14:16:01;;;;;;;1.00;0.90;;;;;;;;;;5055257;28;20291;-78
2022/11/07 14:18:33;;;;;;;2.10;1.35;;;;;;;;;;5055035;28;20202;-76
2022/11/07 14:21:01;;;;;;;2.78;1.33;;;;;;;;;;5055188;28;20232;-77
2022/11/07 14:23:32;;;;;;;2.20;1.30;;;;;;;;;;5054918;28;20205;-76
2022/11/07 14:26:02;;;;;;;2.70;1.20;;;;;;;;;;5053849;28;20197;-76
2022/11/07 14:28:36;;;;;;;1.30;1.10;;;;;;;;;;5055088;28;20247;-77
2022/11/07 14:31:17;;;;;;;2.08;1.25;;;;;;;;;;5055088;28;20703;-76
2022/11/07 14:33:49;;;;;;;2.92;1.10;;;;;;;;;;5055472;28;20619;-76
2022/11/07 14:36:17;;;;;;;1.50;1.10;;;;;;;;;;5055023;28;20202;-76
2022/11/07 14:38:51;;;;;;;2.45;1.40;;;;;;;;;;5054350;28;20292;-76
2022/11/07 14:41:20;;;;;;;1.92;1.20;;;;;;;;;;5054779;28;20319;-78
2022/11/07 14:43:48;;;;;;;3.03;1.65;;;;;;;;;;5055103;28;20212;-78
2022/11/07 14:46:19;;;;;;;3.88;1.73;;;;;;;;;;5054899;28;20204;-78
2022/11/07 14:48:48;;;;;;;2.30;2.10;;;;;;;;;;5054579;28;20721;-78
2022/11/07 14:51:21;;;;;;;1.33;1.20;;;;;;;;;;5054406;28;20729;-78
2022/11/07 14:53:55;;;;;;;1.88;1.40;;;;;;;;;;5054890;28;20186;-78
2022/11/07 14:56:26;;;;;;;1.60;1.50;;;;;;;;;;5054369;28;20296;-78
2022/11/07 14:58:54;;;;;;;2.47;1.95;;;;;;;;;;5054508;28;20206;-78
2022/11/07 15:01:28;;;;;;;1.35;1.08;;;;;;;;;;5064531;28;20228;-78
2022/11/07 15:03:58;;;;;;;1.17;1.08;;;;;;;;;;5074586;28;20655;-78
2022/11/07 15:06:34;;;;;;;2.05;1.95;;;;;;;;;;5074807;28;20197;-78
2022/11/07 15:09:06;;;;;;;3.15;2.17;;;;;;;;;;5074136;28;20200;-78
2022/11/07 15:11:36;;;;;;;2.45;1.00;;;;;;;;;;5065655;28;20375;-79
2022/11/07 15:14:06;;;;;;;1.70;1.30;;;;;;;;;;5053841;28;20197;-76
2022/11/07 15:16:38;;;;;;;1.55;1.20;;;;;;;;;;5054085;28;20674;-77
2022/11/07 15:19:07;;;;;;;1.75;0.95;;;;;;;;;;5053720;28;20289;-78
2022/11/07 15:21:37;;;;;;;1.40;1.30;;;;;;;;;;5053816;28;20602;-76
2022/11/07 15:24:32;;;;;;;0.90;0.90;;;;;;;;;;5054060;28;20212;-78
2022/11/07 15:27:00;;;;;;;1.58;1.10;;;;;;;;;;5059808;28;20743;-78